createdAt,value
2022-08-24T08:19:53.038Z,3.03
2022-08-24T08:23:14.885Z,3.07
2022-08-24T08:25:59.835Z,2.53
2022-08-24T08:28:35.423Z,2.70
2022-08-24T08:31:04.825Z,2.77
2022-08-24T08:33:33.622Z,2.57
2022-08-24T08:36:50.910Z,2.07
2022-08-24T08:39:26.267Z,2.57
2022-08-24T08:42:30.236Z,2.60
2022-08-24T08:45:47.499Z,2.50
2022-08-24T08:48:48.243Z,2.13
2022-08-24T08:51:31.439Z,2.40
2022-08-24T08:54:11.336Z,2.37
2022-08-24T08:57:19.680Z,2.10
2022-08-24T09:00:15.851Z,2.23
2022-08-24T09:02:46.210Z,2.30
2022-08-24T09:05:44.033Z,2.03
2022-08-24T09:08:52.072Z,2.07
2022-08-24T09:11:19.168Z,2.53
2022-08-24T09:14:07.763Z,2.00
2022-08-24T09:17:00.757Z,2.53
2022-08-24T09:20:18.473Z,2.27
2022-08-24T09:22:50.919Z,2.47
2022-08-24T09:25:51.106Z,2.20
2022-08-24T09:28:24.259Z,2.17
2022-08-24T09:31:19.362Z,2.10
2022-08-24T09:34:06.017Z,2.10
2022-08-24T09:37:02.433Z,2.20
2022-08-24T09:39:35.245Z,2.23
2022-08-24T09:42:20.361Z,2.10
2022-08-24T09:44:47.996Z,1.90
2022-08-24T09:47:42.951Z,2.10
2022-08-24T09:50:18.607Z,2.40
2022-08-24T09:52:49.523Z,2.17
2022-08-24T09:55:34.660Z,2.40
2022-08-24T09:58:16.105Z,2.37
2022-08-24T10:01:08.945Z,1.93
2022-08-24T10:03:48.746Z,2.00
2022-08-24T10:06:37.653Z,1.83
2022-08-24T10:09:31.533Z,1.80
2022-08-24T10:12:12.579Z,1.87
2022-08-24T10:15:04.212Z,1.60
2022-08-24T10:17:34.152Z,1.83
2022-08-24T10:20:26.216Z,1.77
2022-08-24T10:23:30.297Z,1.63
2022-08-24T10:26:04.892Z,1.77
2022-08-24T10:28:46.841Z,1.60
2022-08-24T10:31:35.094Z,1.73
2022-08-24T10:34:12.536Z,1.63
2022-08-24T10:36:39.330Z,1.30
2022-08-24T10:39:30.765Z,1.67
2022-08-24T10:42:37.791Z,1.60
2022-08-24T10:45:18.525Z,2.03
2022-08-24T10:48:19.417Z,1.50
2022-08-24T10:51:08.563Z,1.63
2022-08-24T10:53:35.938Z,1.40
2022-08-24T10:56:15.561Z,1.77
2022-08-24T10:58:56.380Z,1.63
2022-08-24T11:01:31.017Z,1.70
2022-08-24T11:04:13.029Z,1.60
2022-08-24T11:06:44.299Z,1.50
2022-08-24T11:09:17.250Z,1.57
2022-08-24T11:11:48.935Z,1.37
2022-08-24T11:14:15.797Z,1.37
2022-08-24T11:16:47.534Z,1.63
2022-08-24T11:19:26.877Z,1.23
2022-08-24T11:21:58.732Z,1.20
2022-08-24T11:24:28.070Z,1.33
2022-08-24T11:27:02.145Z,1.30
2022-08-24T11:29:50.056Z,1.30
2022-08-24T11:32:45.562Z,1.00
2022-08-24T11:35:24.956Z,1.30
2022-08-24T11:37:56.185Z,1.20
2022-08-24T11:40:28.589Z,1.13
2022-08-24T11:43:06.062Z,1.40
2022-08-24T11:45:51.470Z,1.40
2022-08-24T11:48:46.160Z,1.30
2022-08-24T11:51:29.905Z,1.43
2022-08-24T11:54:19.360Z,1.47
2022-08-24T11:57:01.218Z,1.60
2022-08-24T11:59:54.057Z,1.83
2022-08-24T12:02:28.638Z,1.80
2022-08-24T12:05:08.377Z,1.60
2022-08-24T12:08:00.821Z,1.73
2022-08-24T12:10:46.028Z,1.60
2022-08-24T12:13:33.822Z,2.20
2022-08-24T12:16:22.559Z,1.70
2022-08-24T12:19:16.601Z,1.60
2022-08-24T12:21:47.928Z,1.80
2022-08-24T12:24:43.104Z,1.50
2022-08-24T12:27:14.618Z,1.50
2022-08-24T12:30:00.578Z,1.47
2022-08-24T12:32:49.994Z,1.50
2022-08-24T12:35:39.419Z,1.70
2022-08-24T12:38:20.204Z,1.33
2022-08-24T12:41:00.108Z,1.20
2022-08-24T12:43:40.724Z,1.50
2022-08-24T12:46:08.216Z,1.20
2022-08-24T12:48:49.066Z,1.33
2022-08-24T12:52:00.590Z,1.30
2022-08-24T12:54:55.383Z,1.23
2022-08-24T12:57:57.956Z,1.30
2022-08-24T13:00:32.419Z,1.27
2022-08-24T13:03:03.839Z,1.30
2022-08-24T13:05:56.855Z,1.20
2022-08-24T13:08:43.490Z,0.93
2022-08-24T13:11:48.461Z,1.20
2022-08-24T13:14:18.466Z,1.20
2022-08-24T13:16:57.486Z,1.20
2022-08-24T13:19:28.473Z,1.13
2022-08-24T13:21:59.575Z,1.40
2022-08-24T13:24:31.655Z,1.23
2022-08-24T13:27:18.552Z,1.20
2022-08-24T13:30:07.641Z,1.13
2022-08-24T13:32:44.225Z,1.03
2022-08-24T13:35:57.072Z,0.90
2022-08-24T13:38:33.949Z,1.27
2022-08-24T13:41:15.987Z,1.10
2022-08-24T13:44:01.944Z,1.33
2022-08-24T13:46:41.018Z,1.13
2022-08-24T13:49:33.274Z,1.00
2022-08-24T13:52:19.180Z,1.27
2022-08-24T13:55:06.703Z,1.30
2022-08-24T13:57:59.909Z,1.00
2022-08-24T14:00:29.648Z,1.40
2022-08-24T14:03:26.784Z,1.53
2022-08-24T14:06:21.545Z,1.50
2022-08-24T14:09:17.051Z,1.57
2022-08-24T14:12:00.272Z,1.60
2022-08-24T14:14:51.423Z,1.30
2022-08-24T14:17:54.135Z,1.37
2022-08-24T14:20:59.669Z,1.40
2022-08-24T14:23:50.074Z,1.50
2022-08-24T14:26:43.535Z,1.40
2022-08-24T14:29:19.645Z,1.40
2022-08-24T14:32:11.569Z,1.40
2022-08-24T14:34:58.153Z,1.27
2022-08-24T14:37:50.520Z,1.13
2022-08-24T14:40:35.021Z,1.27
2022-08-24T14:43:46.909Z,1.40
2022-08-24T14:46:40.412Z,1.50
2022-08-24T14:49:44.003Z,1.30
2022-08-24T14:52:43.803Z,1.70
2022-08-24T14:55:45.269Z,1.40
2022-08-24T14:58:33.154Z,1.70
2022-08-24T15:01:26.733Z,1.60
2022-08-24T15:04:42.179Z,1.53
2022-08-24T15:07:20.593Z,1.80
2022-08-24T15:10:04.630Z,1.50
2022-08-24T15:12:48.157Z,1.53
2022-08-24T17:55:25.085Z,2.93
